sensor_id;sensor_type;location;lat;lon;timestamp;temperature;humidity
15099;DHT22;33900;53.640;9.942;2023-04-09T00:00:21;11.00;86.70
15099;DHT22;33900;53.640;9.942;2023-04-09T00:02:47;11.00;86.70
15099;DHT22;33900;53.640;9.942;2023-04-09T00:05:12;10.90;86.60
15099;DHT22;33900;53.640;9.942;2023-04-09T00:07:38;10.90;86.70
15099;DHT22;33900;53.640;9.942;2023-04-09T00:10:04;10.90;86.70
15099;DHT22;33900;53.640;9.942;2023-04-09T00:12:30;10.90;86.70
15099;DHT22;33900;53.640;9.942;2023-04-09T00:14:56;10.80;86.70
15099;DHT22;33900;53.640;9.942;2023-04-09T00:17:22;10.80;86.70
15099;DHT22;33900;53.640;9.942;2023-04-09T00:19:47;10.80;86.70
15099;DHT22;33900;53.640;9.942;2023-04-09T00:22:13;10.80;86.80
15099;DHT22;33900;53.640;9.942;2023-04-09T00:24:39;10.80;86.80
15099;DHT22;33900;53.640;9.942;2023-04-09T00:27:05;10.70;86.70
15099;DHT22;33900;53.640;9.942;2023-04-09T00:29:31;10.70;86.70
15099;DHT22;33900;53.640;9.942;2023-04-09T00:31:56;10.70;86.80
15099;DHT22;33900;53.640;9.942;2023-04-09T00:34:22;10.70;87.00
15099;DHT22;33900;53.640;9.942;2023-04-09T00:36:48;10.60;87.00
15099;DHT22;33900;53.640;9.942;2023-04-09T00:39:14;10.70;87.10
15099;DHT22;33900;53.640;9.942;2023-04-09T00:41:40;10.60;87.20
15099;DHT22;33900;53.640;9.942;2023-04-09T00:44:05;10.60;87.30
15099;DHT22;33900;53.640;9.942;2023-04-09T00:46:31;10.60;87.40
15099;DHT22;33900;53.640;9.942;2023-04-09T00:48:57;10.50;87.40
15099;DHT22;33900;53.640;9.942;2023-04-09T00:51:23;10.50;87.40
15099;DHT22;33900;53.640;9.942;2023-04-09T00:53:49;10.50;87.40
15099;DHT22;33900;53.640;9.942;2023-04-09T00:56:15;10.50;87.40
15099;DHT22;33900;53.640;9.942;2023-04-09T00:58:41;10.50;87.40
15099;DHT22;33900;53.640;9.942;2023-04-09T01:01:07;10.50;87.40
15099;DHT22;33900;53.640;9.942;2023-04-09T01:03:33;10.50;87.50
15099;DHT22;33900;53.640;9.942;2023-04-09T01:08:32;10.40;87.50
15099;DHT22;33900;53.640;9.942;2023-04-09T01:11:23;10.40;87.70
15099;DHT22;33900;53.640;9.942;2023-04-09T01:16:33;10.40;87.80
15099;DHT22;33900;53.640;9.942;2023-04-09T01:19:01;10.40;87.80
15099;DHT22;33900;53.640;9.942;2023-04-09T01:21:31;10.40;87.80
15099;DHT22;33900;53.640;9.942;2023-04-09T01:29:16;10.40;87.90
15099;DHT22;33900;53.640;9.942;2023-04-09T01:31:43;10.40;87.90
15099;DHT22;33900;53.640;9.942;2023-04-09T01:34:09;10.40;87.90
15099;DHT22;33900;53.640;9.942;2023-04-09T01:36:35;10.40;88.00
15099;DHT22;33900;53.640;9.942;2023-04-09T01:39:02;10.30;88.10
15099;DHT22;33900;53.640;9.942;2023-04-09T01:41:30;10.30;88.10
15099;DHT22;33900;53.640;9.942;2023-04-09T01:43:56;10.30;87.90
15099;DHT22;33900;53.640;9.942;2023-04-09T01:46:26;10.30;87.90
15099;DHT22;33900;53.640;9.942;2023-04-09T01:48:52;10.30;88.10
15099;DHT22;33900;53.640;9.942;2023-04-09T01:51:18;10.30;88.20
15099;DHT22;33900;53.640;9.942;2023-04-09T01:53:44;10.30;88.20
15099;DHT22;33900;53.640;9.942;2023-04-09T01:56:09;10.30;88.30
15099;DHT22;33900;53.640;9.942;2023-04-09T01:58:36;10.30;88.40
15099;DHT22;33900;53.640;9.942;2023-04-09T02:03:34;10.30;88.50
15099;DHT22;33900;53.640;9.942;2023-04-09T02:06:12;10.30;88.60
15099;DHT22;33900;53.640;9.942;2023-04-09T02:08:41;10.30;88.60
15099;DHT22;33900;53.640;9.942;2023-04-09T02:11:08;10.30;88.60
15099;DHT22;33900;53.640;9.942;2023-04-09T02:13:35;10.30;88.60
15099;DHT22;33900;53.640;9.942;2023-04-09T02:16:01;10.30;88.70
15099;DHT22;33900;53.640;9.942;2023-04-09T02:18:28;10.30;88.70
15099;DHT22;33900;53.640;9.942;2023-04-09T02:20:54;10.20;88.60
15099;DHT22;33900;53.640;9.942;2023-04-09T02:23:21;10.30;88.70
15099;DHT22;33900;53.640;9.942;2023-04-09T02:25:46;10.20;88.70
15099;DHT22;33900;53.640;9.942;2023-04-09T02:28:12;10.20;88.70
15099;DHT22;33900;53.640;9.942;2023-04-09T02:30:38;10.20;88.80
15099;DHT22;33900;53.640;9.942;2023-04-09T02:33:04;10.20;88.80
15099;DHT22;33900;53.640;9.942;2023-04-09T02:35:30;10.20;88.90
15099;DHT22;33900;53.640;9.942;2023-04-09T02:37:55;10.20;88.90
15099;DHT22;33900;53.640;9.942;2023-04-09T02:40:21;10.20;88.90
15099;DHT22;33900;53.640;9.942;2023-04-09T02:42:47;10.20;89.00
15099;DHT22;33900;53.640;9.942;2023-04-09T02:45:13;10.20;89.00
15099;DHT22;33900;53.640;9.942;2023-04-09T02:47:38;10.20;89.00
15099;DHT22;33900;53.640;9.942;2023-04-09T02:50:05;10.20;89.10
15099;DHT22;33900;53.640;9.942;2023-04-09T02:52:32;10.20;89.10
15099;DHT22;33900;53.640;9.942;2023-04-09T02:54:58;10.20;89.20
15099;DHT22;33900;53.640;9.942;2023-04-09T02:57:23;10.20;89.30
15099;DHT22;33900;53.640;9.942;2023-04-09T03:03:18;10.20;89.20
15099;DHT22;33900;53.640;9.942;2023-04-09T03:05:43;10.20;89.30
15099;DHT22;33900;53.640;9.942;2023-04-09T03:08:09;10.20;89.30
15099;DHT22;33900;53.640;9.942;2023-04-09T03:10:35;10.20;89.30
15099;DHT22;33900;53.640;9.942;2023-04-09T03:13:01;10.20;89.40
15099;DHT22;33900;53.640;9.942;2023-04-09T03:15:26;10.20;89.40
15099;DHT22;33900;53.640;9.942;2023-04-09T03:17:52;10.20;89.40
15099;DHT22;33900;53.640;9.942;2023-04-09T03:20:19;10.20;89.40
15099;DHT22;33900;53.640;9.942;2023-04-09T03:22:45;10.20;89.40
15099;DHT22;33900;53.640;9.942;2023-04-09T03:25:27;10.20;89.40
15099;DHT22;33900;53.640;9.942;2023-04-09T03:27:54;10.20;89.40
15099;DHT22;33900;53.640;9.942;2023-04-09T03:30:33;10.20;89.40
15099;DHT22;33900;53.640;9.942;2023-04-09T03:33:01;10.20;89.40
15099;DHT22;33900;53.640;9.942;2023-04-09T03:35:29;10.20;89.40
15099;DHT22;33900;53.640;9.942;2023-04-09T03:37:57;10.20;89.50
15099;DHT22;33900;53.640;9.942;2023-04-09T03:40:23;10.20;89.50
15099;DHT22;33900;53.640;9.942;2023-04-09T03:42:49;10.20;89.50
15099;DHT22;33900;53.640;9.942;2023-04-09T03:45:16;10.10;89.50
15099;DHT22;33900;53.640;9.942;2023-04-09T03:47:44;10.10;89.50
15099;DHT22;33900;53.640;9.942;2023-04-09T03:50:11;10.20;89.60
15099;DHT22;33900;53.640;9.942;2023-04-09T03:52:47;10.20;89.60
15099;DHT22;33900;53.640;9.942;2023-04-09T03:55:13;10.20;89.60
15099;DHT22;33900;53.640;9.942;2023-04-09T03:57:38;10.20;89.50
15099;DHT22;33900;53.640;9.942;2023-04-09T04:00:08;10.20;89.50
15099;DHT22;33900;53.640;9.942;2023-04-09T04:02:54;10.20;89.50
15099;DHT22;33900;53.640;9.942;2023-04-09T04:05:40;10.20;89.50
15099;DHT22;33900;53.640;9.942;2023-04-09T04:08:08;10.20;89.50
15099;DHT22;33900;53.640;9.942;2023-04-09T04:10:34;10.20;89.60
15099;DHT22;33900;53.640;9.942;2023-04-09T04:13:00;10.20;89.60
15099;DHT22;33900;53.640;9.942;2023-04-09T04:15:41;10.20;89.60
15099;DHT22;33900;53.640;9.942;2023-04-09T04:18:08;10.20;89.60
15099;DHT22;33900;53.640;9.942;2023-04-09T04:20:42;10.20;89.70
15099;DHT22;33900;53.640;9.942;2023-04-09T04:23:12;10.20;89.70
15099;DHT22;33900;53.640;9.942;2023-04-09T04:25:50;10.20;89.80
15099;DHT22;33900;53.640;9.942;2023-04-09T04:28:23;10.20;89.70
15099;DHT22;33900;53.640;9.942;2023-04-09T04:30:49;10.20;89.80
15099;DHT22;33900;53.640;9.942;2023-04-09T04:33:15;10.20;89.80
15099;DHT22;33900;53.640;9.942;2023-04-09T04:35:46;10.20;89.80
15099;DHT22;33900;53.640;9.942;2023-04-09T04:38:35;10.20;89.80
15099;DHT22;33900;53.640;9.942;2023-04-09T04:41:04;10.20;89.80
15099;DHT22;33900;53.640;9.942;2023-04-09T04:43:34;10.20;89.80
15099;DHT22;33900;53.640;9.942;2023-04-09T04:45:59;10.20;89.80
15099;DHT22;33900;53.640;9.942;2023-04-09T04:48:28;10.20;89.80
15099;DHT22;33900;53.640;9.942;2023-04-09T04:50:59;10.20;89.80
15099;DHT22;33900;53.640;9.942;2023-04-09T04:53:31;10.20;89.80
15099;DHT22;33900;53.640;9.942;2023-04-09T04:55:59;10.20;89.80
15099;DHT22;33900;53.640;9.942;2023-04-09T04:58:26;10.20;89.80
15099;DHT22;33900;53.640;9.942;2023-04-09T05:00:55;10.20;89.90
15099;DHT22;33900;53.640;9.942;2023-04-09T05:03:21;10.20;89.90
15099;DHT22;33900;53.640;9.942;2023-04-09T05:06:02;10.20;89.90
15099;DHT22;33900;53.640;9.942;2023-04-09T05:08:36;10.20;89.90
15099;DHT22;33900;53.640;9.942;2023-04-09T05:11:01;10.20;89.90
15099;DHT22;33900;53.640;9.942;2023-04-09T05:13:33;10.20;89.90
15099;DHT22;33900;53.640;9.942;2023-04-09T05:16:02;10.20;90.00
15099;DHT22;33900;53.640;9.942;2023-04-09T05:18:29;10.20;89.90
15099;DHT22;33900;53.640;9.942;2023-04-09T05:20:55;10.20;89.90
15099;DHT22;33900;53.640;9.942;2023-04-09T05:23:20;10.20;90.00
15099;DHT22;33900;53.640;9.942;2023-04-09T05:25:48;10.20;89.90
15099;DHT22;33900;53.640;9.942;2023-04-09T05:28:35;10.20;89.90
15099;DHT22;33900;53.640;9.942;2023-04-09T05:31:15;10.20;89.90
15099;DHT22;33900;53.640;9.942;2023-04-09T05:33:48;10.20;89.90
15099;DHT22;33900;53.640;9.942;2023-04-09T05:36:20;10.20;89.90
15099;DHT22;33900;53.640;9.942;2023-04-09T05:38:45;10.20;89.90
15099;DHT22;33900;53.640;9.942;2023-04-09T05:41:12;10.20;89.90
15099;DHT22;33900;53.640;9.942;2023-04-09T05:43:47;10.20;90.00
15099;DHT22;33900;53.640;9.942;2023-04-09T05:46:13;10.20;90.00
15099;DHT22;33900;53.640;9.942;2023-04-09T05:48:39;10.20;90.00
15099;DHT22;33900;53.640;9.942;2023-04-09T05:51:05;10.20;90.00
15099;DHT22;33900;53.640;9.942;2023-04-09T05:53:32;10.20;90.00
15099;DHT22;33900;53.640;9.942;2023-04-09T05:55:58;10.20;90.00
15099;DHT22;33900;53.640;9.942;2023-04-09T05:58:29;10.20;90.00
15099;DHT22;33900;53.640;9.942;2023-04-09T06:00:56;10.20;90.40
15099;DHT22;33900;53.640;9.942;2023-04-09T06:03:22;10.20;90.00
15099;DHT22;33900;53.640;9.942;2023-04-09T06:05:47;10.20;90.00
15099;DHT22;33900;53.640;9.942;2023-04-09T06:08:13;10.20;90.10
15099;DHT22;33900;53.640;9.942;2023-04-09T06:10:39;10.20;90.10
15099;DHT22;33900;53.640;9.942;2023-04-09T06:13:04;10.20;90.10
15099;DHT22;33900;53.640;9.942;2023-04-09T06:15:30;10.20;90.10
15099;DHT22;33900;53.640;9.942;2023-04-09T06:17:56;10.20;90.10
15099;DHT22;33900;53.640;9.942;2023-04-09T06:20:25;10.30;90.10
15099;DHT22;33900;53.640;9.942;2023-04-09T06:22:54;10.30;89.90
15099;DHT22;33900;53.640;9.942;2023-04-09T06:25:20;10.30;89.70
15099;DHT22;33900;53.640;9.942;2023-04-09T06:27:46;10.30;89.60
15099;DHT22;33900;53.640;9.942;2023-04-09T06:30:11;10.30;89.80
15099;DHT22;33900;53.640;9.942;2023-04-09T06:32:37;10.30;89.80
15099;DHT22;33900;53.640;9.942;2023-04-09T06:35:03;10.40;89.90
15099;DHT22;33900;53.640;9.942;2023-04-09T06:37:28;10.40;89.90
15099;DHT22;33900;53.640;9.942;2023-04-09T06:39:54;10.40;89.90
15099;DHT22;33900;53.640;9.942;2023-04-09T06:42:20;10.50;90.00
15099;DHT22;33900;53.640;9.942;2023-04-09T06:45:08;10.40;90.00
15099;DHT22;33900;53.640;9.942;2023-04-09T06:47:34;10.50;89.90
15099;DHT22;33900;53.640;9.942;2023-04-09T06:50:00;10.50;89.80
15099;DHT22;33900;53.640;9.942;2023-04-09T06:52:26;10.50;89.80
15099;DHT22;33900;53.640;9.942;2023-04-09T06:54:51;10.50;89.90
15099;DHT22;33900;53.640;9.942;2023-04-09T06:57:17;10.50;89.90
15099;DHT22;33900;53.640;9.942;2023-04-09T06:59:43;10.60;90.00
15099;DHT22;33900;53.640;9.942;2023-04-09T07:02:08;10.60;89.90
15099;DHT22;33900;53.640;9.942;2023-04-09T07:04:34;10.60;89.90
15099;DHT22;33900;53.640;9.942;2023-04-09T07:07:00;10.60;89.90
15099;DHT22;33900;53.640;9.942;2023-04-09T07:09:26;10.70;89.90
15099;DHT22;33900;53.640;9.942;2023-04-09T07:11:52;10.70;89.90
15099;DHT22;33900;53.640;9.942;2023-04-09T07:14:18;10.70;89.90
15099;DHT22;33900;53.640;9.942;2023-04-09T07:16:43;10.70;89.90
15099;DHT22;33900;53.640;9.942;2023-04-09T07:19:11;10.70;90.00
15099;DHT22;33900;53.640;9.942;2023-04-09T07:21:36;10.70;90.00
15099;DHT22;33900;53.640;9.942;2023-04-09T07:24:02;10.70;90.00
15099;DHT22;33900;53.640;9.942;2023-04-09T07:26:28;10.70;90.00
15099;DHT22;33900;53.640;9.942;2023-04-09T07:28:54;10.70;90.00
15099;DHT22;33900;53.640;9.942;2023-04-09T07:31:21;10.80;90.00
15099;DHT22;33900;53.640;9.942;2023-04-09T07:33:46;10.80;90.00
15099;DHT22;33900;53.640;9.942;2023-04-09T07:36:12;10.80;90.00
15099;DHT22;33900;53.640;9.942;2023-04-09T07:38:37;10.80;90.00
15099;DHT22;33900;53.640;9.942;2023-04-09T07:41:03;10.80;90.00
15099;DHT22;33900;53.640;9.942;2023-04-09T07:43:30;10.90;90.00
15099;DHT22;33900;53.640;9.942;2023-04-09T07:45:56;10.90;90.00
15099;DHT22;33900;53.640;9.942;2023-04-09T07:48:21;11.00;89.90
15099;DHT22;33900;53.640;9.942;2023-04-09T07:50:47;11.00;89.80
15099;DHT22;33900;53.640;9.942;2023-04-09T07:53:13;11.00;89.80
15099;DHT22;33900;53.640;9.942;2023-04-09T07:55:39;11.10;89.70
15099;DHT22;33900;53.640;9.942;2023-04-09T07:58:05;11.10;89.70
15099;DHT22;33900;53.640;9.942;2023-04-09T08:00:30;11.10;89.60
15099;DHT22;33900;53.640;9.942;2023-04-09T08:02:56;11.20;89.60
15099;DHT22;33900;53.640;9.942;2023-04-09T08:05:22;11.20;89.60
15099;DHT22;33900;53.640;9.942;2023-04-09T08:07:49;11.20;89.50
15099;DHT22;33900;53.640;9.942;2023-04-09T08:10:15;11.30;89.70
15099;DHT22;33900;53.640;9.942;2023-04-09T08:12:41;11.30;89.60
15099;DHT22;33900;53.640;9.942;2023-04-09T08:15:07;11.30;89.50
15099;DHT22;33900;53.640;9.942;2023-04-09T08:17:32;11.40;89.60
15099;DHT22;33900;53.640;9.942;2023-04-09T08:19:58;11.40;89.60
15099;DHT22;33900;53.640;9.942;2023-04-09T08:22:24;11.40;89.40
15099;DHT22;33900;53.640;9.942;2023-04-09T08:24:51;11.50;89.30
15099;DHT22;33900;53.640;9.942;2023-04-09T08:27:20;11.50;89.30
15099;DHT22;33900;53.640;9.942;2023-04-09T08:29:49;11.60;89.20
15099;DHT22;33900;53.640;9.942;2023-04-09T08:32:17;11.60;89.10
15099;DHT22;33900;53.640;9.942;2023-04-09T08:34:43;11.60;88.90
15099;DHT22;33900;53.640;9.942;2023-04-09T08:37:08;11.60;88.90
15099;DHT22;33900;53.640;9.942;2023-04-09T08:39:34;11.60;88.90
15099;DHT22;33900;53.640;9.942;2023-04-09T08:42:00;11.60;88.90
15099;DHT22;33900;53.640;9.942;2023-04-09T08:44:27;11.60;88.80
15099;DHT22;33900;53.640;9.942;2023-04-09T08:46:53;11.60;88.90
15099;DHT22;33900;53.640;9.942;2023-04-09T08:49:19;11.60;88.80
15099;DHT22;33900;53.640;9.942;2023-04-09T08:51:46;11.60;88.80
15099;DHT22;33900;53.640;9.942;2023-04-09T08:54:13;11.60;88.90
15099;DHT22;33900;53.640;9.942;2023-04-09T08:56:40;11.60;88.70
15099;DHT22;33900;53.640;9.942;2023-04-09T08:59:05;11.60;88.70
15099;DHT22;33900;53.640;9.942;2023-04-09T09:01:31;11.60;88.60
15099;DHT22;33900;53.640;9.942;2023-04-09T09:04:04;11.60;88.60
15099;DHT22;33900;53.640;9.942;2023-04-09T09:06:34;11.60;88.60
15099;DHT22;33900;53.640;9.942;2023-04-09T09:09:11;11.60;88.50
15099;DHT22;33900;53.640;9.942;2023-04-09T09:11:41;11.60;88.60
15099;DHT22;33900;53.640;9.942;2023-04-09T09:14:08;11.60;88.50
15099;DHT22;33900;53.640;9.942;2023-04-09T09:16:34;11.60;88.50
15099;DHT22;33900;53.640;9.942;2023-04-09T09:19:01;11.60;88.50
15099;DHT22;33900;53.640;9.942;2023-04-09T09:21:27;11.60;88.50
15099;DHT22;33900;53.640;9.942;2023-04-09T09:23:53;11.60;88.50
15099;DHT22;33900;53.640;9.942;2023-04-09T09:28:50;11.70;88.40
15099;DHT22;33900;53.640;9.942;2023-04-09T09:31:16;11.70;88.40
15099;DHT22;33900;53.640;9.942;2023-04-09T09:33:42;11.70;88.40
15099;DHT22;33900;53.640;9.942;2023-04-09T09:36:08;11.70;88.40
15099;DHT22;33900;53.640;9.942;2023-04-09T09:38:55;11.70;88.40
15099;DHT22;33900;53.640;9.942;2023-04-09T09:41:20;11.70;88.30
15099;DHT22;33900;53.640;9.942;2023-04-09T09:43:46;11.80;88.30
15099;DHT22;33900;53.640;9.942;2023-04-09T09:46:12;11.80;88.30
15099;DHT22;33900;53.640;9.942;2023-04-09T09:48:38;11.80;88.30
15099;DHT22;33900;53.640;9.942;2023-04-09T09:51:10;11.90;88.20
15099;DHT22;33900;53.640;9.942;2023-04-09T09:53:36;11.90;88.00
15099;DHT22;33900;53.640;9.942;2023-04-09T09:56:05;12.00;88.00
15099;DHT22;33900;53.640;9.942;2023-04-09T09:58:44;12.00;87.70
15099;DHT22;33900;53.640;9.942;2023-04-09T10:01:13;12.00;87.50
15099;DHT22;33900;53.640;9.942;2023-04-09T10:03:40;12.10;87.60
15099;DHT22;33900;53.640;9.942;2023-04-09T10:06:08;12.10;87.50
15099;DHT22;33900;53.640;9.942;2023-04-09T10:08:35;12.20;87.50
15099;DHT22;33900;53.640;9.942;2023-04-09T10:11:03;12.30;87.50
15099;DHT22;33900;53.640;9.942;2023-04-09T10:13:49;12.30;87.40
15099;DHT22;33900;53.640;9.942;2023-04-09T10:16:15;12.30;87.40
15099;DHT22;33900;53.640;9.942;2023-04-09T10:18:41;12.30;87.20
15099;DHT22;33900;53.640;9.942;2023-04-09T10:21:11;12.40;87.20
15099;DHT22;33900;53.640;9.942;2023-04-09T10:23:38;12.40;87.10
15099;DHT22;33900;53.640;9.942;2023-04-09T10:26:04;12.40;87.10
15099;DHT22;33900;53.640;9.942;2023-04-09T10:28:30;12.40;87.00
15099;DHT22;33900;53.640;9.942;2023-04-09T10:30:57;12.40;87.00
15099;DHT22;33900;53.640;9.942;2023-04-09T10:33:23;12.50;86.90
15099;DHT22;33900;53.640;9.942;2023-04-09T10:35:52;12.50;86.90
15099;DHT22;33900;53.640;9.942;2023-04-09T10:38:52;12.50;86.90
15099;DHT22;33900;53.640;9.942;2023-04-09T10:41:15;12.50;86.90
15099;DHT22;33900;53.640;9.942;2023-04-09T10:43:46;12.50;86.90
15099;DHT22;33900;53.640;9.942;2023-04-09T10:49:15;12.50;86.60
15099;DHT22;33900;53.640;9.942;2023-04-09T10:51:46;12.60;86.70
15099;DHT22;33900;53.640;9.942;2023-04-09T10:59:41;12.60;86.50
15099;DHT22;33900;53.640;9.942;2023-04-09T11:02:08;12.60;86.50
15099;DHT22;33900;53.640;9.942;2023-04-09T11:04:37;12.60;86.50
15099;DHT22;33900;53.640;9.942;2023-04-09T11:07:04;12.70;86.50
15099;DHT22;33900;53.640;9.942;2023-04-09T11:09:34;12.70;86.40
15099;DHT22;33900;53.640;9.942;2023-04-09T11:12:10;12.70;86.30
15099;DHT22;33900;53.640;9.942;2023-04-09T11:14:35;12.80;86.30
15099;DHT22;33900;53.640;9.942;2023-04-09T11:17:04;12.80;86.30
15099;DHT22;33900;53.640;9.942;2023-04-09T11:19:32;12.80;86.20
15099;DHT22;33900;53.640;9.942;2023-04-09T11:21:58;12.80;86.00
15099;DHT22;33900;53.640;9.942;2023-04-09T11:24:24;12.90;85.80
15099;DHT22;33900;53.640;9.942;2023-04-09T11:26:50;12.90;85.70
15099;DHT22;33900;53.640;9.942;2023-04-09T11:29:21;12.90;85.70
15099;DHT22;33900;53.640;9.942;2023-04-09T11:31:50;13.00;85.70
15099;DHT22;33900;53.640;9.942;2023-04-09T11:34:16;13.00;85.70
15099;DHT22;33900;53.640;9.942;2023-04-09T11:36:42;13.00;85.60
15099;DHT22;33900;53.640;9.942;2023-04-09T11:39:10;13.00;85.50
15099;DHT22;33900;53.640;9.942;2023-04-09T11:41:37;13.00;85.40
15099;DHT22;33900;53.640;9.942;2023-04-09T11:44:12;13.00;85.40
15099;DHT22;33900;53.640;9.942;2023-04-09T11:46:38;13.00;85.40
15099;DHT22;33900;53.640;9.942;2023-04-09T11:49:05;13.10;85.40
15099;DHT22;33900;53.640;9.942;2023-04-09T11:51:36;13.10;85.40
15099;DHT22;33900;53.640;9.942;2023-04-09T11:54:07;13.10;85.40
15099;DHT22;33900;53.640;9.942;2023-04-09T11:56:36;13.20;85.30
15099;DHT22;33900;53.640;9.942;2023-04-09T11:59:02;13.20;85.10
15099;DHT22;33900;53.640;9.942;2023-04-09T12:01:33;13.30;85.10
15099;DHT22;33900;53.640;9.942;2023-04-09T12:04:02;13.40;85.20
15099;DHT22;33900;53.640;9.942;2023-04-09T12:06:27;13.50;85.20
15099;DHT22;33900;53.640;9.942;2023-04-09T12:08:57;13.60;85.20
15099;DHT22;33900;53.640;9.942;2023-04-09T12:11:27;13.80;85.20
15099;DHT22;33900;53.640;9.942;2023-04-09T12:14:01;14.00;85.10
15099;DHT22;33900;53.640;9.942;2023-04-09T12:16:30;14.20;85.00
15099;DHT22;33900;53.640;9.942;2023-04-09T12:19:03;14.30;84.60
15099;DHT22;33900;53.640;9.942;2023-04-09T12:24:12;14.50;84.30
15099;DHT22;33900;53.640;9.942;2023-04-09T12:26:38;14.50;83.90
15099;DHT22;33900;53.640;9.942;2023-04-09T12:29:06;14.70;84.00
15099;DHT22;33900;53.640;9.942;2023-04-09T12:31:32;14.80;84.00
15099;DHT22;33900;53.640;9.942;2023-04-09T12:33:57;15.00;83.80
15099;DHT22;33900;53.640;9.942;2023-04-09T12:36:25;15.10;83.40
15099;DHT22;33900;53.640;9.942;2023-04-09T12:38:51;15.30;83.50
15099;DHT22;33900;53.640;9.942;2023-04-09T12:41:17;15.40;84.10
15099;DHT22;33900;53.640;9.942;2023-04-09T12:43:42;15.60;83.20
15099;DHT22;33900;53.640;9.942;2023-04-09T12:46:08;15.80;83.00
15099;DHT22;33900;53.640;9.942;2023-04-09T12:48:34;16.00;82.80
15099;DHT22;33900;53.640;9.942;2023-04-09T12:50:59;16.10;82.60
15099;DHT22;33900;53.640;9.942;2023-04-09T12:53:26;16.20;81.80
15099;DHT22;33900;53.640;9.942;2023-04-09T12:55:52;16.20;81.20
15099;DHT22;33900;53.640;9.942;2023-04-09T12:58:18;16.20;81.00
15099;DHT22;33900;53.640;9.942;2023-04-09T13:00:44;16.30;80.90
15099;DHT22;33900;53.640;9.942;2023-04-09T13:03:10;16.40;80.50
15099;DHT22;33900;53.640;9.942;2023-04-09T13:05:37;16.50;80.60
15099;DHT22;33900;53.640;9.942;2023-04-09T13:08:02;16.60;80.40
15099;DHT22;33900;53.640;9.942;2023-04-09T13:10:29;16.70;79.60
15099;DHT22;33900;53.640;9.942;2023-04-09T13:12:55;16.80;78.50
15099;DHT22;33900;53.640;9.942;2023-04-09T13:15:21;16.90;78.60
15099;DHT22;33900;53.640;9.942;2023-04-09T13:17:47;17.00;78.40
15099;DHT22;33900;53.640;9.942;2023-04-09T13:20:12;17.10;78.00
15099;DHT22;33900;53.640;9.942;2023-04-09T13:22:38;17.20;78.20
15099;DHT22;33900;53.640;9.942;2023-04-09T13:25:04;17.20;78.40
15099;DHT22;33900;53.640;9.942;2023-04-09T13:27:30;17.40;78.20
15099;DHT22;33900;53.640;9.942;2023-04-09T13:29:57;17.50;78.20
15099;DHT22;33900;53.640;9.942;2023-04-09T13:32:23;17.60;78.20
15099;DHT22;33900;53.640;9.942;2023-04-09T13:34:49;17.60;77.60
15099;DHT22;33900;53.640;9.942;2023-04-09T13:37:19;17.60;77.80
15099;DHT22;33900;53.640;9.942;2023-04-09T13:39:45;17.50;76.70
15099;DHT22;33900;53.640;9.942;2023-04-09T13:42:11;17.50;77.20
15099;DHT22;33900;53.640;9.942;2023-04-09T13:44:37;17.60;77.10
15099;DHT22;33900;53.640;9.942;2023-04-09T13:47:04;17.60;75.80
15099;DHT22;33900;53.640;9.942;2023-04-09T13:49:30;17.50;75.80
15099;DHT22;33900;53.640;9.942;2023-04-09T13:51:56;17.50;75.60
15099;DHT22;33900;53.640;9.942;2023-04-09T13:54:22;17.60;75.70
15099;DHT22;33900;53.640;9.942;2023-04-09T13:56:48;17.60;75.50
15099;DHT22;33900;53.640;9.942;2023-04-09T13:59:15;17.70;75.30
15099;DHT22;33900;53.640;9.942;2023-04-09T14:01:40;17.80;75.50
15099;DHT22;33900;53.640;9.942;2023-04-09T14:04:06;17.80;75.80
15099;DHT22;33900;53.640;9.942;2023-04-09T14:06:32;17.90;75.60
15099;DHT22;33900;53.640;9.942;2023-04-09T14:08:58;18.00;75.40
15099;DHT22;33900;53.640;9.942;2023-04-09T14:11:24;17.90;74.80
15099;DHT22;33900;53.640;9.942;2023-04-09T14:13:50;17.80;74.50
15099;DHT22;33900;53.640;9.942;2023-04-09T14:16:16;17.90;74.20
15099;DHT22;33900;53.640;9.942;2023-04-09T14:18:42;17.80;73.80
15099;DHT22;33900;53.640;9.942;2023-04-09T14:21:07;17.80;73.70
15099;DHT22;33900;53.640;9.942;2023-04-09T14:23:33;17.70;74.10
15099;DHT22;33900;53.640;9.942;2023-04-09T14:26:00;17.80;74.50
15099;DHT22;33900;53.640;9.942;2023-04-09T14:28:26;17.90;74.70
15099;DHT22;33900;53.640;9.942;2023-04-09T14:30:52;18.00;74.50
15099;DHT22;33900;53.640;9.942;2023-04-09T14:33:18;18.00;74.00
15099;DHT22;33900;53.640;9.942;2023-04-09T14:35:43;18.00;73.40
15099;DHT22;33900;53.640;9.942;2023-04-09T14:38:09;18.00;73.40
15099;DHT22;33900;53.640;9.942;2023-04-09T14:40:35;18.00;73.50
15099;DHT22;33900;53.640;9.942;2023-04-09T14:43:01;18.00;73.00
15099;DHT22;33900;53.640;9.942;2023-04-09T14:45:26;18.00;72.90
15099;DHT22;33900;53.640;9.942;2023-04-09T14:47:52;18.00;73.00
15099;DHT22;33900;53.640;9.942;2023-04-09T14:50:19;17.90;72.10
15099;DHT22;33900;53.640;9.942;2023-04-09T14:52:45;17.90;72.40
15099;DHT22;33900;53.640;9.942;2023-04-09T14:55:12;17.90;72.00
15099;DHT22;33900;53.640;9.942;2023-04-09T14:57:38;17.90;72.10
15099;DHT22;33900;53.640;9.942;2023-04-09T15:00:08;17.80;71.80
15099;DHT22;33900;53.640;9.942;2023-04-09T15:02:34;17.80;71.80
15099;DHT22;33900;53.640;9.942;2023-04-09T15:04:59;17.80;71.70
15099;DHT22;33900;53.640;9.942;2023-04-09T15:07:26;17.70;71.30
15099;DHT22;33900;53.640;9.942;2023-04-09T15:09:52;17.70;71.30
15099;DHT22;33900;53.640;9.942;2023-04-09T15:12:17;17.60;71.60
15099;DHT22;33900;53.640;9.942;2023-04-09T15:14:43;17.60;71.60
15099;DHT22;33900;53.640;9.942;2023-04-09T15:17:09;17.50;71.90
15099;DHT22;33900;53.640;9.942;2023-04-09T15:19:34;17.50;72.10
15099;DHT22;33900;53.640;9.942;2023-04-09T15:22:00;17.50;72.20
15099;DHT22;33900;53.640;9.942;2023-04-09T15:24:26;17.50;71.90
15099;DHT22;33900;53.640;9.942;2023-04-09T15:26:52;17.50;71.80
15099;DHT22;33900;53.640;9.942;2023-04-09T15:29:18;17.40;71.70
15099;DHT22;33900;53.640;9.942;2023-04-09T15:31:46;17.40;71.90
15099;DHT22;33900;53.640;9.942;2023-04-09T15:34:13;17.40;72.00
15099;DHT22;33900;53.640;9.942;2023-04-09T15:36:40;17.30;72.10
15099;DHT22;33900;53.640;9.942;2023-04-09T15:39:06;17.30;72.20
15099;DHT22;33900;53.640;9.942;2023-04-09T15:41:31;17.30;72.30
15099;DHT22;33900;53.640;9.942;2023-04-09T15:43:58;17.20;72.20
15099;DHT22;33900;53.640;9.942;2023-04-09T15:46:24;17.20;72.30
15099;DHT22;33900;53.640;9.942;2023-04-09T15:48:51;17.20;72.20
15099;DHT22;33900;53.640;9.942;2023-04-09T15:51:16;17.10;72.20
15099;DHT22;33900;53.640;9.942;2023-04-09T15:53:42;17.10;72.00
15099;DHT22;33900;53.640;9.942;2023-04-09T15:56:08;17.00;71.60
15099;DHT22;33900;53.640;9.942;2023-04-09T15:58:35;17.00;71.90
15099;DHT22;33900;53.640;9.942;2023-04-09T16:01:05;16.90;72.00